sensor_id;sensor_type;location;lat;lon;timestamp;P1;durP1;ratioP1;P2;durP2;ratioP2
21800;SDS011;11062;51.164;16.924;2022-11-20T00:01:44;68.82;;;31.60;;
21800;SDS011;11062;51.164;16.924;2022-11-20T00:04:13;61.38;;;30.40;;
21800;SDS011;11062;51.164;16.924;2022-11-20T00:06:39;52.65;;;26.70;;
21800;SDS011;11062;51.164;16.924;2022-11-20T00:09:09;58.22;;;28.23;;
21800;SDS011;11062;51.164;16.924;2022-11-20T00:11:38;57.22;;;26.77;;
21800;SDS011;11062;51.164;16.924;2022-11-20T00:14:04;54.67;;;28.05;;
21800;SDS011;11062;51.164;16.924;2022-11-20T00:16:40;52.58;;;26.50;;
21800;SDS011;11062;51.164;16.924;2022-11-20T00:19:09;55.97;;;27.20;;
21800;SDS011;11062;51.164;16.924;2022-11-20T00:21:35;57.22;;;26.27;;
21800;SDS011;11062;51.164;16.924;2022-11-20T00:24:04;49.78;;;26.35;;
21800;SDS011;11062;51.164;16.924;2022-11-20T00:26:33;47.50;;;24.02;;
21800;SDS011;11062;51.164;16.924;2022-11-20T00:29:02;49.35;;;24.55;;
21800;SDS011;11062;51.164;16.924;2022-11-20T00:31:28;44.78;;;22.42;;
21800;SDS011;11062;51.164;16.924;2022-11-20T00:33:55;47.65;;;22.50;;
21800;SDS011;11062;51.164;16.924;2022-11-20T00:36:22;42.25;;;21.90;;
21800;SDS011;11062;51.164;16.924;2022-11-20T00:38:52;49.88;;;22.30;;
21800;SDS011;11062;51.164;16.924;2022-11-20T00:41:23;46.15;;;23.55;;
21800;SDS011;11062;51.164;16.924;2022-11-20T00:43:58;47.75;;;22.70;;
21800;SDS011;11062;51.164;16.924;2022-11-20T03:28:03;48.92;;;22.63;;
21800;SDS011;11062;51.164;16.924;2022-11-20T03:30:44;49.00;;;23.88;;
21800;SDS011;11062;51.164;16.924;2022-11-20T03:33:10;51.97;;;23.30;;
21800;SDS011;11062;51.164;16.924;2022-11-20T03:35:36;45.42;;;23.63;;
21800;SDS011;11062;51.164;16.924;2022-11-20T03:38:02;50.40;;;24.55;;
21800;SDS011;11062;51.164;16.924;2022-11-20T03:40:28;70.15;;;29.90;;
21800;SDS011;11062;51.164;16.924;2022-11-20T03:42:54;55.03;;;24.38;;
21800;SDS011;11062;51.164;16.924;2022-11-20T03:45:20;56.45;;;25.77;;
21800;SDS011;11062;51.164;16.924;2022-11-20T03:47:46;50.00;;;24.33;;
21800;SDS011;11062;51.164;16.924;2022-11-20T03:50:13;53.70;;;23.52;;
21800;SDS011;11062;51.164;16.924;2022-11-20T03:52:39;47.95;;;24.65;;
21800;SDS011;11062;51.164;16.924;2022-11-20T03:55:06;51.85;;;24.75;;
21800;SDS011;11062;51.164;16.924;2022-11-20T03:57:32;50.58;;;24.33;;
21800;SDS011;11062;51.164;16.924;2022-11-20T03:59:58;50.72;;;24.90;;
21800;SDS011;11062;51.164;16.924;2022-11-20T04:02:28;51.53;;;24.63;;
21800;SDS011;11062;51.164;16.924;2022-11-20T04:04:54;49.05;;;24.13;;
21800;SDS011;11062;51.164;16.924;2022-11-20T04:07:23;49.47;;;25.38;;
21800;SDS011;11062;51.164;16.924;2022-11-20T04:09:48;56.92;;;25.95;;
21800;SDS011;11062;51.164;16.924;2022-11-20T04:12:14;56.22;;;25.67;;
21800;SDS011;11062;51.164;16.924;2022-11-20T04:14:47;52.88;;;24.20;;
21800;SDS011;11062;51.164;16.924;2022-11-20T04:17:13;50.92;;;25.35;;
21800;SDS011;11062;51.164;16.924;2022-11-20T04:19:39;57.83;;;25.23;;
21800;SDS011;11062;51.164;16.924;2022-11-20T04:22:05;51.42;;;25.58;;
21800;SDS011;11062;51.164;16.924;2022-11-20T04:24:31;56.45;;;25.58;;
21800;SDS011;11062;51.164;16.924;2022-11-20T04:27:00;53.03;;;25.77;;
21800;SDS011;11062;51.164;16.924;2022-11-20T04:29:25;54.95;;;25.45;;
21800;SDS011;11062;51.164;16.924;2022-11-20T04:31:54;54.85;;;25.00;;
21800;SDS011;11062;51.164;16.924;2022-11-20T04:34:20;48.97;;;24.33;;
21800;SDS011;11062;51.164;16.924;2022-11-20T04:36:46;57.38;;;24.65;;
21800;SDS011;11062;51.164;16.924;2022-11-20T04:39:12;58.33;;;25.65;;
21800;SDS011;11062;51.164;16.924;2022-11-20T04:41:42;49.38;;;24.45;;
21800;SDS011;11062;51.164;16.924;2022-11-20T04:44:16;54.80;;;26.25;;
21800;SDS011;11062;51.164;16.924;2022-11-20T04:46:45;51.30;;;25.35;;
21800;SDS011;11062;51.164;16.924;2022-11-20T04:49:17;58.83;;;25.80;;
21800;SDS011;11062;51.164;16.924;2022-11-20T04:51:45;54.85;;;24.17;;
21800;SDS011;11062;51.164;16.924;2022-11-20T04:54:11;263.77;;;99.88;;
21800;SDS011;11062;51.164;16.924;2022-11-20T04:56:41;267.17;;;103.25;;
21800;SDS011;11062;51.164;16.924;2022-11-20T04:59:09;250.80;;;105.50;;
21800;SDS011;11062;51.164;16.924;2022-11-20T05:01:38;252.88;;;112.13;;
21800;SDS011;11062;51.164;16.924;2022-11-20T05:04:04;267.95;;;108.63;;
21800;SDS011;11062;51.164;16.924;2022-11-20T05:06:30;228.88;;;108.70;;
21800;SDS011;11062;51.164;16.924;2022-11-20T05:08:57;250.20;;;96.50;;
21800;SDS011;11062;51.164;16.924;2022-11-20T05:11:23;251.77;;;95.75;;
21800;SDS011;11062;51.164;16.924;2022-11-20T05:13:50;240.80;;;98.43;;
21800;SDS011;11062;51.164;16.924;2022-11-20T05:16:23;257.08;;;101.68;;
21800;SDS011;11062;51.164;16.924;2022-11-20T05:18:50;259.88;;;105.22;;
21800;SDS011;11062;51.164;16.924;2022-11-20T05:21:22;264.50;;;107.55;;
21800;SDS011;11062;51.164;16.924;2022-11-20T05:23:51;245.82;;;107.60;;
21800;SDS011;11062;51.164;16.924;2022-11-20T05:26:23;282.65;;;140.27;;
21800;SDS011;11062;51.164;16.924;2022-11-20T05:28:49;285.45;;;135.07;;
21800;SDS011;11062;51.164;16.924;2022-11-20T05:31:26;286.00;;;142.93;;
21800;SDS011;11062;51.164;16.924;2022-11-20T05:33:55;277.33;;;138.40;;
21800;SDS011;11062;51.164;16.924;2022-11-20T05:36:22;275.90;;;133.27;;
21800;SDS011;11062;51.164;16.924;2022-11-20T05:38:48;261.30;;;119.55;;
21800;SDS011;11062;51.164;16.924;2022-11-20T05:41:18;88.18;;;41.17;;
21800;SDS011;11062;51.164;16.924;2022-11-20T05:43:45;248.40;;;113.15;;
21800;SDS011;11062;51.164;16.924;2022-11-20T05:46:13;234.20;;;100.05;;
21800;SDS011;11062;51.164;16.924;2022-11-20T05:48:41;256.63;;;110.93;;
21800;SDS011;11062;51.164;16.924;2022-11-20T05:51:10;239.20;;;99.32;;
21800;SDS011;11062;51.164;16.924;2022-11-20T05:53:38;238.05;;;96.75;;
21800;SDS011;11062;51.164;16.924;2022-11-20T05:56:05;244.95;;;104.35;;
21800;SDS011;11062;51.164;16.924;2022-11-20T05:58:39;249.07;;;110.32;;
21800;SDS011;11062;51.164;16.924;2022-11-20T06:01:16;254.95;;;115.20;;
21800;SDS011;11062;51.164;16.924;2022-11-20T06:03:47;242.32;;;98.75;;
21800;SDS011;11062;51.164;16.924;2022-11-20T06:06:15;237.18;;;97.60;;
21800;SDS011;11062;51.164;16.924;2022-11-20T06:08:43;251.02;;;96.82;;
21800;SDS011;11062;51.164;16.924;2022-11-20T06:11:10;272.42;;;127.43;;
21800;SDS011;11062;51.164;16.924;2022-11-20T06:13:39;248.48;;;103.90;;
21800;SDS011;11062;51.164;16.924;2022-11-20T06:16:06;247.60;;;104.18;;
21800;SDS011;11062;51.164;16.924;2022-11-20T06:18:35;252.82;;;106.78;;
21800;SDS011;11062;51.164;16.924;2022-11-20T06:21:02;241.02;;;99.28;;
21800;SDS011;11062;51.164;16.924;2022-11-20T06:23:33;244.85;;;105.55;;
21800;SDS011;11062;51.164;16.924;2022-11-20T06:26:06;241.00;;;105.75;;
21800;SDS011;11062;51.164;16.924;2022-11-20T06:28:37;235.93;;;98.03;;
21800;SDS011;11062;51.164;16.924;2022-11-20T06:31:03;248.68;;;106.35;;
21800;SDS011;11062;51.164;16.924;2022-11-20T06:33:32;250.70;;;108.47;;
21800;SDS011;11062;51.164;16.924;2022-11-20T06:35:59;237.07;;;97.90;;
21800;SDS011;11062;51.164;16.924;2022-11-20T06:38:26;251.65;;;101.90;;
21800;SDS011;11062;51.164;16.924;2022-11-20T06:40:53;249.45;;;101.35;;
21800;SDS011;11062;51.164;16.924;2022-11-20T06:43:22;242.18;;;100.82;;
21800;SDS011;11062;51.164;16.924;2022-11-20T06:45:52;241.77;;;101.13;;
21800;SDS011;11062;51.164;16.924;2022-11-20T06:48:19;243.27;;;99.35;;
21800;SDS011;11062;51.164;16.924;2022-11-20T06:50:48;225.77;;;96.32;;
21800;SDS011;11062;51.164;16.924;2022-11-20T06:53:14;245.38;;;106.07;;
21800;SDS011;11062;51.164;16.924;2022-11-20T06:55:43;239.80;;;105.88;;
21800;SDS011;11062;51.164;16.924;2022-11-20T06:58:10;236.05;;;96.63;;
21800;SDS011;11062;51.164;16.924;2022-11-20T07:00:37;235.77;;;101.38;;
21800;SDS011;11062;51.164;16.924;2022-11-20T07:03:03;232.43;;;97.97;;
21800;SDS011;11062;51.164;16.924;2022-11-20T07:05:30;236.32;;;95.38;;
21800;SDS011;11062;51.164;16.924;2022-11-20T07:07:56;225.75;;;94.43;;
21800;SDS011;11062;51.164;16.924;2022-11-20T07:10:23;230.48;;;94.53;;
21800;SDS011;11062;51.164;16.924;2022-11-20T07:12:49;237.55;;;97.55;;
21800;SDS011;11062;51.164;16.924;2022-11-20T07:15:17;239.40;;;97.70;;
21800;SDS011;11062;51.164;16.924;2022-11-20T07:17:43;238.77;;;97.45;;
21800;SDS011;11062;51.164;16.924;2022-11-20T07:20:09;242.00;;;97.88;;
21800;SDS011;11062;51.164;16.924;2022-11-20T07:22:38;249.38;;;98.40;;
21800;SDS011;11062;51.164;16.924;2022-11-20T07:25:05;246.30;;;99.95;;
21800;SDS011;11062;51.164;16.924;2022-11-20T07:27:31;243.02;;;99.70;;
21800;SDS011;11062;51.164;16.924;2022-11-20T07:30:03;245.25;;;104.13;;
21800;SDS011;11062;51.164;16.924;2022-11-20T07:32:39;244.15;;;99.75;;
21800;SDS011;11062;51.164;16.924;2022-11-20T07:35:05;238.90;;;98.90;;
21800;SDS011;11062;51.164;16.924;2022-11-20T07:37:35;242.63;;;102.45;;
21800;SDS011;11062;51.164;16.924;2022-11-20T07:40:04;242.13;;;99.10;;
21800;SDS011;11062;51.164;16.924;2022-11-20T07:42:31;257.65;;;109.60;;
21800;SDS011;11062;51.164;16.924;2022-11-20T07:44:57;253.60;;;111.53;;
21800;SDS011;11062;51.164;16.924;2022-11-20T07:47:23;274.77;;;122.20;;
21800;SDS011;11062;51.164;16.924;2022-11-20T07:49:50;274.55;;;114.40;;
21800;SDS011;11062;51.164;16.924;2022-11-20T07:52:16;252.93;;;107.60;;
21800;SDS011;11062;51.164;16.924;2022-11-20T07:54:42;293.83;;;137.98;;
21800;SDS011;11062;51.164;16.924;2022-11-20T07:57:08;274.48;;;115.95;;
21800;SDS011;11062;51.164;16.924;2022-11-20T07:59:37;260.00;;;110.80;;
21800;SDS011;11062;51.164;16.924;2022-11-20T08:02:12;256.70;;;106.82;;
21800;SDS011;11062;51.164;16.924;2022-11-20T08:04:41;251.07;;;105.82;;
21800;SDS011;11062;51.164;16.924;2022-11-20T08:07:07;248.02;;;105.22;;
21800;SDS011;11062;51.164;16.924;2022-11-20T08:09:42;254.65;;;104.55;;
21800;SDS011;11062;51.164;16.924;2022-11-20T08:12:09;244.68;;;103.38;;
21800;SDS011;11062;51.164;16.924;2022-11-20T08:15:06;250.10;;;103.78;;
21800;SDS011;11062;51.164;16.924;2022-11-20T08:17:33;251.85;;;103.90;;
21800;SDS011;11062;51.164;16.924;2022-11-20T08:19:59;258.73;;;109.80;;
21800;SDS011;11062;51.164;16.924;2022-11-20T09:54:51;246.32;;;97.72;;
21800;SDS011;11062;51.164;16.924;2022-11-20T09:57:27;260.17;;;98.90;;
21800;SDS011;11062;51.164;16.924;2022-11-20T10:00:05;256.27;;;103.45;;
21800;SDS011;11062;51.164;16.924;2022-11-20T10:05:50;245.82;;;97.00;;
21800;SDS011;11062;51.164;16.924;2022-11-20T10:14:21;243.88;;;98.80;;
21800;SDS011;11062;51.164;16.924;2022-11-20T10:22:39;241.85;;;96.10;;
21800;SDS011;11062;51.164;16.924;2022-11-20T10:25:19;242.73;;;97.95;;
21800;SDS011;11062;51.164;16.924;2022-11-20T10:28:09;239.40;;;94.20;;
21800;SDS011;11062;51.164;16.924;2022-11-20T10:30:40;251.18;;;98.90;;
21800;SDS011;11062;51.164;16.924;2022-11-20T10:33:21;237.15;;;91.88;;
21800;SDS011;11062;51.164;16.924;2022-11-20T10:35:52;246.10;;;94.95;;
21800;SDS011;11062;51.164;16.924;2022-11-20T10:38:43;247.68;;;96.72;;
21800;SDS011;11062;51.164;16.924;2022-11-20T10:41:37;247.13;;;97.55;;
21800;SDS011;11062;51.164;16.924;2022-11-20T10:44:14;241.55;;;94.70;;
21800;SDS011;11062;51.164;16.924;2022-11-20T10:47:02;247.52;;;96.05;;
21800;SDS011;11062;51.164;16.924;2022-11-20T10:49:30;241.52;;;94.05;;
21800;SDS011;11062;51.164;16.924;2022-11-20T10:52:09;250.70;;;95.75;;
21800;SDS011;11062;51.164;16.924;2022-11-20T11:00:46;249.55;;;95.68;;
21800;SDS011;11062;51.164;16.924;2022-11-20T11:06:43;256.65;;;93.95;;
21800;SDS011;11062;51.164;16.924;2022-11-20T11:09:17;246.32;;;92.45;;
21800;SDS011;11062;51.164;16.924;2022-11-20T11:11:51;250.98;;;96.80;;
21800;SDS011;11062;51.164;16.924;2022-11-20T11:14:17;257.60;;;97.32;;
21800;SDS011;11062;51.164;16.924;2022-11-20T11:16:51;265.60;;;99.68;;
21800;SDS011;11062;51.164;16.924;2022-11-20T11:19:19;268.08;;;98.70;;
21800;SDS011;11062;51.164;16.924;2022-11-20T11:21:52;259.60;;;102.78;;
21800;SDS011;11062;51.164;16.924;2022-11-20T11:26:59;256.80;;;96.15;;
21800;SDS011;11062;51.164;16.924;2022-11-20T11:29:32;258.30;;;99.47;;
21800;SDS011;11062;51.164;16.924;2022-11-20T11:32:20;257.55;;;97.18;;
21800;SDS011;11062;51.164;16.924;2022-11-20T11:34:59;268.27;;;100.28;;
21800;SDS011;11062;51.164;16.924;2022-11-20T11:37:32;263.48;;;100.65;;
21800;SDS011;11062;51.164;16.924;2022-11-20T11:40:03;266.42;;;104.20;;
21800;SDS011;11062;51.164;16.924;2022-11-20T11:42:33;273.02;;;107.43;;
21800;SDS011;11062;51.164;16.924;2022-11-20T11:44:59;311.25;;;129.23;;
21800;SDS011;11062;51.164;16.924;2022-11-20T11:47:32;271.48;;;107.15;;
21800;SDS011;11062;51.164;16.924;2022-11-20T11:52:42;276.98;;;108.75;;
21800;SDS011;11062;51.164;16.924;2022-11-20T11:55:14;291.05;;;113.28;;
21800;SDS011;11062;51.164;16.924;2022-11-20T11:58:04;278.35;;;107.82;;
21800;SDS011;11062;51.164;16.924;2022-11-20T12:00:47;290.17;;;112.47;;
21800;SDS011;11062;51.164;16.924;2022-11-20T12:03:37;287.23;;;119.03;;
21800;SDS011;11062;51.164;16.924;2022-11-20T12:06:15;274.27;;;110.10;;
21800;SDS011;11062;51.164;16.924;2022-11-20T12:08:50;285.20;;;113.88;;
21800;SDS011;11062;51.164;16.924;2022-11-20T12:11:43;284.35;;;110.43;;
21800;SDS011;11062;51.164;16.924;2022-11-20T12:16:49;286.50;;;114.40;;
21800;SDS011;11062;51.164;16.924;2022-11-20T12:19:22;300.17;;;119.57;;
21800;SDS011;11062;51.164;16.924;2022-11-20T12:30:56;297.88;;;121.57;;
21800;SDS011;11062;51.164;16.924;2022-11-20T12:39:13;287.40;;;115.07;;
21800;SDS011;11062;51.164;16.924;2022-11-20T12:41:53;281.95;;;111.22;;
21800;SDS011;11062;51.164;16.924;2022-11-20T12:56:00;314.00;;;119.63;;
21800;SDS011;11062;51.164;16.924;2022-11-20T12:58:38;291.05;;;115.05;;
21800;SDS011;11062;51.164;16.924;2022-11-20T13:04:45;285.92;;;116.10;;
21800;SDS011;11062;51.164;16.924;2022-11-20T13:07:13;274.55;;;110.80;;
21800;SDS011;11062;51.164;16.924;2022-11-20T13:09:46;282.92;;;112.53;;
21800;SDS011;11062;51.164;16.924;2022-11-20T13:12:19;278.65;;;111.25;;
21800;SDS011;11062;51.164;16.924;2022-11-20T13:14:55;279.85;;;110.07;;
21800;SDS011;11062;51.164;16.924;2022-11-20T13:17:37;281.00;;;110.05;;
21800;SDS011;11062;51.164;16.924;2022-11-20T13:25:30;274.67;;;109.00;;
21800;SDS011;11062;51.164;16.924;2022-11-20T13:28:02;278.00;;;108.53;;
21800;SDS011;11062;51.164;16.924;2022-11-20T13:30:30;277.90;;;105.18;;
21800;SDS011;11062;51.164;16.924;2022-11-20T13:33:22;288.15;;;118.53;;
21800;SDS011;11062;51.164;16.924;2022-11-20T13:36:00;290.13;;;116.95;;
21800;SDS011;11062;51.164;16.924;2022-11-20T13:38:42;291.75;;;115.80;;
21800;SDS011;11062;51.164;16.924;2022-11-20T13:41:11;316.10;;;123.47;;
21800;SDS011;11062;51.164;16.924;2022-11-20T13:43:54;291.98;;;113.07;;
21800;SDS011;11062;51.164;16.924;2022-11-20T13:46:45;283.13;;;108.75;;
21800;SDS011;11062;51.164;16.924;2022-11-20T13:49:20;297.80;;;113.70;;
21800;SDS011;11062;51.164;16.924;2022-11-20T13:55:14;281.70;;;105.35;;
21800;SDS011;11062;51.164;16.924;2022-11-20T13:59:56;271.90;;;102.78;;
21800;SDS011;11062;51.164;16.924;2022-11-20T14:02:26;265.48;;;104.05;;
21800;SDS011;11062;51.164;16.924;2022-11-20T14:04:56;281.23;;;109.13;;
21800;SDS011;11062;51.164;16.924;2022-11-20T14:07:41;358.08;;;150.32;;
21800;SDS011;11062;51.164;16.924;2022-11-20T14:10:25;328.98;;;133.73;;
21800;SDS011;11062;51.164;16.924;2022-11-20T14:12:52;331.63;;;133.07;;
21800;SDS011;11062;51.164;16.924;2022-11-20T14:15:32;325.33;;;128.32;;
21800;SDS011;11062;51.164;16.924;2022-11-20T14:18:13;301.45;;;125.22;;
21800;SDS011;11062;51.164;16.924;2022-11-20T14:20:44;269.23;;;108.07;;
21800;SDS011;11062;51.164;16.924;2022-11-20T14:23:11;272.77;;;105.30;;
21800;SDS011;11062;51.164;16.924;2022-11-20T14:25:43;277.98;;;107.93;;
21800;SDS011;11062;51.164;16.924;2022-11-20T14:28:29;269.42;;;106.07;;
21800;SDS011;11062;51.164;16.924;2022-11-20T14:30:56;265.30;;;102.10;;
21800;SDS011;11062;51.164;16.924;2022-11-20T14:33:26;264.08;;;99.95;;
21800;SDS011;11062;51.164;16.924;2022-11-20T14:35:55;263.80;;;98.65;;
21800;SDS011;11062;51.164;16.924;2022-11-20T14:38:25;276.25;;;101.28;;
21800;SDS011;11062;51.164;16.924;2022-11-20T14:40:53;371.00;;;152.30;;
21800;SDS011;11062;51.164;16.924;2022-11-20T14:43:23;361.55;;;144.23;;
21800;SDS011;11062;51.164;16.924;2022-11-20T14:45:58;340.63;;;136.07;;
21800;SDS011;11062;51.164;16.924;2022-11-20T14:48:45;277.67;;;107.85;;
21800;SDS011;11062;51.164;16.924;2022-11-20T14:51:35;329.73;;;126.95;;
21800;SDS011;11062;51.164;16.924;2022-11-20T14:54:18;299.45;;;115.78;;
21800;SDS011;11062;51.164;16.924;2022-11-20T14:56:57;300.88;;;122.57;;
21800;SDS011;11062;51.164;16.924;2022-11-20T14:59:30;308.40;;;122.20;;
21800;SDS011;11062;51.164;16.924;2022-11-20T15:02:10;295.05;;;117.25;;
21800;SDS011;11062;51.164;16.924;2022-11-20T15:04:56;353.38;;;137.63;;
21800;SDS011;11062;51.164;16.924;2022-11-20T15:07:27;301.58;;;117.22;;
21800;SDS011;11062;51.164;16.924;2022-11-20T15:10:05;266.10;;;107.80;;
21800;SDS011;11062;51.164;16.924;2022-11-20T15:12:33;308.17;;;119.15;;
21800;SDS011;11062;51.164;16.924;2022-11-20T15:15:01;288.65;;;115.65;;
21800;SDS011;11062;51.164;16.924;2022-11-20T15:17:28;286.63;;;114.65;;
21800;SDS011;11062;51.164;16.924;2022-11-20T15:19:59;279.63;;;111.25;;
21800;SDS011;11062;51.164;16.924;2022-11-20T15:22:27;275.85;;;109.43;;
21800;SDS011;11062;51.164;16.924;2022-11-20T15:24:56;266.73;;;100.22;;
21800;SDS011;11062;51.164;16.924;2022-11-20T15:27:27;279.55;;;110.47;;
21800;SDS011;11062;51.164;16.924;2022-11-20T15:29:54;277.17;;;112.68;;
21800;SDS011;11062;51.164;16.924;2022-11-20T15:32:20;265.70;;;109.45;;
21800;SDS011;11062;51.164;16.924;2022-11-20T15:34:48;264.10;;;100.63;;
21800;SDS011;11062;51.164;16.924;2022-11-20T15:37:15;267.80;;;101.40;;
21800;SDS011;11062;51.164;16.924;2022-11-20T15:39:42;250.82;;;97.65;;
21800;SDS011;11062;51.164;16.924;2022-11-20T15:42:14;297.88;;;110.75;;
21800;SDS011;11062;51.164;16.924;2022-11-20T15:44:42;290.10;;;112.13;;
21800;SDS011;11062;51.164;16.924;2022-11-20T15:47:08;310.48;;;127.45;;
21800;SDS011;11062;51.164;16.924;2022-11-20T15:49:35;261.10;;;100.82;;
21800;SDS011;11062;51.164;16.924;2022-11-20T15:52:01;253.15;;;98.25;;
21800;SDS011;11062;51.164;16.924;2022-11-20T15:54:33;273.85;;;103.53;;
21800;SDS011;11062;51.164;16.924;2022-11-20T15:57:07;264.27;;;102.45;;
21800;SDS011;11062;51.164;16.924;2022-11-20T15:59:38;316.23;;;126.13;;
21800;SDS011;11062;51.164;16.924;2022-11-20T16:02:12;335.55;;;130.82;;
21800;SDS011;11062;51.164;16.924;2022-11-20T16:04:39;403.10;;;158.15;;
21800;SDS011;11062;51.164;16.924;2022-11-20T16:07:06;286.50;;;111.90;;
21800;SDS011;11062;51.164;16.924;2022-11-20T16:09:34;272.17;;;101.70;;
21800;SDS011;11062;51.164;16.924;2022-11-20T16:12:03;258.20;;;99.05;;
21800;SDS011;11062;51.164;16.924;2022-11-20T16:14:55;319.55;;;137.27;;
21800;SDS011;11062;51.164;16.924;2022-11-20T16:17:42;387.70;;;153.07;;
21800;SDS011;11062;51.164;16.924;2022-11-20T16:20:10;344.08;;;136.43;;
21800;SDS011;11062;51.164;16.924;2022-11-20T16:22:37;308.45;;;121.85;;
21800;SDS011;11062;51.164;16.924;2022-11-20T16:25:12;423.33;;;165.15;;
21800;SDS011;11062;51.164;16.924;2022-11-20T16:27:46;339.05;;;146.77;;
21800;SDS011;11062;51.164;16.924;2022-11-20T16:30:14;355.70;;;150.82;;
21800;SDS011;11062;51.164;16.924;2022-11-20T16:32:40;356.02;;;142.45;;
21800;SDS011;11062;51.164;16.924;2022-11-20T16:35:07;308.90;;;129.30;;
21800;SDS011;11062;51.164;16.924;2022-11-20T16:37:39;363.83;;;156.93;;
21800;SDS011;11062;51.164;16.924;2022-11-20T16:40:05;311.42;;;131.40;;
21800;SDS011;11062;51.164;16.924;2022-11-20T16:42:35;333.80;;;136.05;;
21800;SDS011;11062;51.164;16.924;2022-11-20T16:45:02;307.17;;;123.80;;
21800;SDS011;11062;51.164;16.924;2022-11-20T16:47:35;331.52;;;133.80;;
21800;SDS011;11062;51.164;16.924;2022-11-20T16:50:02;326.98;;;137.88;;
21800;SDS011;11062;51.164;16.924;2022-11-20T16:52:28;396.00;;;155.63;;
21800;SDS011;11062;51.164;16.924;2022-11-20T17:01:52;362.17;;;140.85;;
21800;SDS011;11062;51.164;16.924;2022-11-20T17:04:18;298.85;;;126.18;;
21800;SDS011;11062;51.164;16.924;2022-11-20T17:06:47;298.58;;;122.72;;
21800;SDS011;11062;51.164;16.924;2022-11-20T17:09:16;292.27;;;117.70;;
21800;SDS011;11062;51.164;16.924;2022-11-20T17:11:42;283.92;;;107.55;;
21800;SDS011;11062;51.164;16.924;2022-11-20T17:14:09;263.38;;;102.82;;
21800;SDS011;11062;51.164;16.924;2022-11-20T17:16:39;275.35;;;104.30;;
21800;SDS011;11062;51.164;16.924;2022-11-20T17:19:05;260.85;;;103.00;;
21800;SDS011;11062;51.164;16.924;2022-11-20T17:21:50;269.85;;;104.13;;
21800;SDS011;11062;51.164;16.924;2022-11-20T17:24:16;268.55;;;103.90;;
21800;SDS011;11062;51.164;16.924;2022-11-20T17:26:42;276.92;;;103.75;;
21800;SDS011;11062;51.164;16.924;2022-11-20T17:29:10;261.88;;;103.55;;
21800;SDS011;11062;51.164;16.924;2022-11-20T17:31:39;255.57;;;104.13;;
21800;SDS011;11062;51.164;16.924;2022-11-20T17:34:09;263.90;;;101.00;;
21800;SDS011;11062;51.164;16.924;2022-11-20T17:36:48;260.67;;;101.88;;
21800;SDS011;11062;51.164;16.924;2022-11-20T17:39:14;259.13;;;101.63;;
21800;SDS011;11062;51.164;16.924;2022-11-20T17:41:47;270.63;;;108.30;;
21800;SDS011;11062;51.164;16.924;2022-11-20T17:44:38;256.35;;;103.97;;
21800;SDS011;11062;51.164;16.924;2022-11-20T17:47:11;313.05;;;132.52;;
21800;SDS011;11062;51.164;16.924;2022-11-20T17:49:37;302.92;;;134.60;;
21800;SDS011;11062;51.164;16.924;2022-11-20T17:52:06;284.52;;;119.28;;
21800;SDS011;11062;51.164;16.924;2022-11-20T17:54:32;287.58;;;120.90;;
21800;SDS011;11062;51.164;16.924;2022-11-20T17:56:58;312.55;;;130.98;;
21800;SDS011;11062;51.164;16.924;2022-11-20T17:59:45;303.13;;;131.43;;
21800;SDS011;11062;51.164;16.924;2022-11-20T18:02:11;301.38;;;127.78;;
21800;SDS011;11062;51.164;16.924;2022-11-20T18:04:37;310.92;;;128.77;;
21800;SDS011;11062;51.164;16.924;2022-11-20T18:07:11;302.63;;;125.57;;
21800;SDS011;11062;51.164;16.924;2022-11-20T18:09:45;333.23;;;136.13;;
21800;SDS011;11062;51.164;16.924;2022-11-20T18:12:17;319.45;;;126.43;;
21800;SDS011;11062;51.164;16.924;2022-11-20T18:14:43;306.48;;;121.60;;
21800;SDS011;11062;51.164;16.924;2022-11-20T18:17:12;310.02;;;123.50;;
21800;SDS011;11062;51.164;16.924;2022-11-20T18:19:40;294.95;;;120.05;;
21800;SDS011;11062;51.164;16.924;2022-11-20T18:22:08;297.80;;;120.57;;
21800;SDS011;11062;51.164;16.924;2022-11-20T18:24:34;302.80;;;119.75;;
21800;SDS011;11062;51.164;16.924;2022-11-20T18:27:01;287.00;;;115.45;;
21800;SDS011;11062;51.164;16.924;2022-11-20T18:29:32;269.08;;;112.10;;
21800;SDS011;11062;51.164;16.924;2022-11-20T18:32:01;295.30;;;119.10;;
21800;SDS011;11062;51.164;16.924;2022-11-20T18:34:27;308.27;;;129.52;;
21800;SDS011;11062;51.164;16.924;2022-11-20T18:36:53;349.88;;;137.35;;
21800;SDS011;11062;51.164;16.924;2022-11-20T18:39:25;323.70;;;128.57;;
21800;SDS011;11062;51.164;16.924;2022-11-20T18:41:54;340.20;;;142.27;;
21800;SDS011;11062;51.164;16.924;2022-11-20T18:44:39;314.77;;;128.25;;
21800;SDS011;11062;51.164;16.924;2022-11-20T18:49:50;358.48;;;155.05;;
21800;SDS011;11062;51.164;16.924;2022-11-20T18:52:21;276.42;;;112.85;;
21800;SDS011;11062;51.164;16.924;2022-11-20T18:54:49;263.67;;;108.22;;
21800;SDS011;11062;51.164;16.924;2022-11-20T18:57:19;306.73;;;131.32;;
21800;SDS011;11062;51.164;16.924;2022-11-20T18:59:53;284.23;;;120.60;;
21800;SDS011;11062;51.164;16.924;2022-11-20T19:02:25;285.30;;;118.93;;
21800;SDS011;11062;51.164;16.924;2022-11-20T19:05:08;292.20;;;124.10;;
21800;SDS011;11062;51.164;16.924;2022-11-20T19:07:38;301.10;;;127.80;;
21800;SDS011;11062;51.164;16.924;2022-11-20T19:10:04;295.45;;;125.40;;
21800;SDS011;11062;51.164;16.924;2022-11-20T19:12:37;289.23;;;122.70;;
21800;SDS011;11062;51.164;16.924;2022-11-20T19:15:03;310.30;;;123.55;;
21800;SDS011;11062;51.164;16.924;2022-11-20T19:17:35;308.70;;;131.95;;
21800;SDS011;11062;51.164;16.924;2022-11-20T19:20:01;276.70;;;117.95;;
21800;SDS011;11062;51.164;16.924;2022-11-20T19:22:30;308.90;;;134.07;;
21800;SDS011;11062;51.164;16.924;2022-11-20T19:24:56;288.30;;;121.93;;
21800;SDS011;11062;51.164;16.924;2022-11-20T19:27:25;300.73;;;125.32;;
21800;SDS011;11062;51.164;16.924;2022-11-20T19:29:51;313.25;;;129.80;;
21800;SDS011;11062;51.164;16.924;2022-11-20T19:34:59;358.45;;;149.32;;
21800;SDS011;11062;51.164;16.924;2022-11-20T19:37:30;345.98;;;149.50;;
21800;SDS011;11062;51.164;16.924;2022-11-20T19:40:00;344.35;;;148.02;;
21800;SDS011;11062;51.164;16.924;2022-11-20T19:42:29;334.60;;;144.80;;
21800;SDS011;11062;51.164;16.924;2022-11-20T19:44:55;327.70;;;137.55;;
21800;SDS011;11062;51.164;16.924;2022-11-20T19:47:24;334.35;;;138.20;;
21800;SDS011;11062;51.164;16.924;2022-11-20T19:49:50;312.02;;;132.73;;
21800;SDS011;11062;51.164;16.924;2022-11-20T19:52:16;346.08;;;139.57;;